createdAt,value
2023-01-17T05:57:54.839Z,26.45
2023-01-17T06:00:57.055Z,30.73
2023-01-17T06:03:59.056Z,25.23
2023-01-17T06:07:00.925Z,27.23
2023-01-17T06:10:03.034Z,22.88
2023-01-17T06:13:14.303Z,22.15
2023-01-17T06:16:16.184Z,17.75
2023-01-17T06:19:18.066Z,15.73
2023-01-17T06:22:19.993Z,24.80
2023-01-17T06:25:21.829Z,13.35
2023-01-17T06:28:24.200Z,16.75
2023-01-17T06:31:26.663Z,11.98
2023-01-17T06:34:28.901Z,13.45
2023-01-17T06:37:30.862Z,12.23
2023-01-17T06:40:33.328Z,9.98
2023-01-17T06:43:35.507Z,9.82
2023-01-17T06:46:57.234Z,12.15
2023-01-17T06:50:01.351Z,10.65
2023-01-17T06:53:05.281Z,9.47
2023-01-17T06:56:08.453Z,8.30
2023-01-17T06:59:10.487Z,7.60
2023-01-17T07:02:12.511Z,9.55
2023-01-17T07:05:17.641Z,8.10
2023-01-17T07:08:24.425Z,9.37
2023-01-17T07:11:28.140Z,9.82
2023-01-17T07:14:32.124Z,8.50
2023-01-17T07:17:35.056Z,8.07
2023-01-17T07:20:38.414Z,8.07
2023-01-17T07:23:41.096Z,10.10
2023-01-17T07:26:43.742Z,9.48
2023-01-17T07:29:45.660Z,7.70
2023-01-17T07:32:53.228Z,6.53
2023-01-17T07:35:55.209Z,6.88
2023-01-17T07:38:57.199Z,6.90
2023-01-17T07:41:59.304Z,7.90
2023-01-17T07:45:02.177Z,8.10
2023-01-17T07:48:04.329Z,7.45
2023-01-17T07:51:06.392Z,7.13
2023-01-17T07:54:08.680Z,8.67
2023-01-17T07:57:13.432Z,8.63
2023-01-17T08:00:16.491Z,10.45
2023-01-17T08:03:19.696Z,12.07
2023-01-17T08:06:25.144Z,11.98
2023-01-17T08:09:27.101Z,12.40
2023-01-17T08:12:29.621Z,16.33
2023-01-17T08:15:31.485Z,12.65
2023-01-17T08:18:33.701Z,16.52
2023-01-17T08:21:35.549Z,10.40
2023-01-17T08:24:37.869Z,11.53
2023-01-17T08:27:40.201Z,12.90
2023-01-17T08:30:42.114Z,12.23
2023-01-17T08:33:44.311Z,11.15
2023-01-17T08:36:47.954Z,12.82
2023-01-17T08:39:50.114Z,15.47
2023-01-17T08:42:56.292Z,16.80
2023-01-17T08:45:58.300Z,12.30
2023-01-17T08:49:01.306Z,12.38
2023-01-17T08:52:03.256Z,11.85
2023-01-17T08:55:06.018Z,14.27
2023-01-17T08:58:08.454Z,9.68
2023-01-17T09:01:10.552Z,19.15
2023-01-17T09:04:13.223Z,20.83
2023-01-17T09:07:16.858Z,14.70
2023-01-17T09:10:18.968Z,13.07
2023-01-17T09:13:21.280Z,17.52
2023-01-17T09:16:23.228Z,13.30
2023-01-17T09:19:25.201Z,11.13
2023-01-17T09:22:27.299Z,13.25
2023-01-17T09:25:29.309Z,10.27
2023-01-17T09:28:31.294Z,11.02
2023-01-17T09:31:33.261Z,9.38
2023-01-17T09:34:35.209Z,12.98
2023-01-17T09:37:37.172Z,14.63
2023-01-17T09:40:45.684Z,8.13
2023-01-17T09:44:01.641Z,24.65
2023-01-17T09:47:14.107Z,24.00
2023-01-17T09:50:45.140Z,11.75
2023-01-17T09:53:47.588Z,15.13
2023-01-17T09:57:19.164Z,10.17
2023-01-17T10:00:47.917Z,14.57
2023-01-17T10:04:05.545Z,13.85
2023-01-17T10:07:21.401Z,20.52
2023-01-17T10:10:26.138Z,21.73
2023-01-17T10:13:43.889Z,12.73
2023-01-17T10:16:58.932Z,8.50
2023-01-17T10:20:20.075Z,8.18
2023-01-17T10:23:33.309Z,9.38
2023-01-17T10:26:36.718Z,10.63
2023-01-17T10:29:41.233Z,8.27
2023-01-17T10:32:49.897Z,8.68
2023-01-17T10:36:03.795Z,8.35
2023-01-17T10:39:26.372Z,6.88
2023-01-17T10:42:49.719Z,8.85
2023-01-17T10:45:54.546Z,6.27
2023-01-17T10:53:10.129Z,6.25
2023-01-17T10:56:15.472Z,6.13
2023-01-17T10:59:26.292Z,5.47
2023-01-17T11:02:36.907Z,4.63
2023-01-17T11:05:41.210Z,4.43
2023-01-17T11:09:02.216Z,4.60
2023-01-17T11:12:05.017Z,5.05
2023-01-17T11:15:09.727Z,7.15
2023-01-17T11:18:20.494Z,21.93
2023-01-17T11:21:24.608Z,7.45
2023-01-17T11:24:30.453Z,5.65
2023-01-17T11:27:35.110Z,17.88
2023-01-17T11:30:37.157Z,9.02
2023-01-17T11:33:45.506Z,10.07
2023-01-17T11:36:47.448Z,7.28
2023-01-17T11:39:49.389Z,9.25
2023-01-17T11:43:01.862Z,10.05
2023-01-17T11:46:24.493Z,13.13
2023-01-17T11:49:26.583Z,9.03
2023-01-17T11:52:39.133Z,6.53
2023-01-17T11:56:11.910Z,9.80
2023-01-17T11:59:34.734Z,7.65
2023-01-17T12:02:55.108Z,16.50
2023-01-17T12:06:13.676Z,7.50
2023-01-17T12:09:35.902Z,4.97
2023-01-17T12:13:29.155Z,7.85
2023-01-17T12:16:57.849Z,8.15
2023-01-17T12:20:06.089Z,10.90
2023-01-17T12:23:13.942Z,4.87
2023-01-17T12:26:31.123Z,9.43
2023-01-17T12:30:08.358Z,5.20
2023-01-17T12:33:37.769Z,3.58
2023-01-17T12:36:51.458Z,4.80
2023-01-17T12:40:13.607Z,6.00
2023-01-17T12:43:37.015Z,6.60
2023-01-17T12:46:50.614Z,6.20
2023-01-17T12:49:56.525Z,6.78
2023-01-17T12:53:14.661Z,5.53
2023-01-17T12:56:24.346Z,5.43
2023-01-17T13:00:00.947Z,3.92
2023-01-17T13:03:37.115Z,4.55
2023-01-17T13:07:04.477Z,5.78
2023-01-17T13:10:31.827Z,8.60
2023-01-17T13:13:35.752Z,7.33
2023-01-17T13:16:47.140Z,5.03
2023-01-17T13:19:59.351Z,5.93
2023-01-17T13:23:12.406Z,5.38
2023-01-17T13:26:24.605Z,6.93
2023-01-17T13:29:47.996Z,5.13
2023-01-17T13:33:07.163Z,6.43
2023-01-17T13:36:29.895Z,13.18
2023-01-17T13:40:18.035Z,7.47
2023-01-17T13:43:25.837Z,12.48
2023-01-17T13:46:31.374Z,7.97
2023-01-17T13:49:42.733Z,5.68
2023-01-17T13:52:44.760Z,8.20
2023-01-17T13:55:53.221Z,4.55
2023-01-17T13:58:58.540Z,6.28
2023-01-17T14:02:01.142Z,9.43
2023-01-17T14:05:09.188Z,4.63
2023-01-17T14:08:21.902Z,4.80
2023-01-17T14:11:23.933Z,10.60
2023-01-17T14:14:44.362Z,9.10
2023-01-17T14:17:52.014Z,8.27
2023-01-17T14:21:05.633Z,9.40
2023-01-17T14:24:10.610Z,9.65
2023-01-17T14:27:34.695Z,16.75
2023-01-17T14:30:59.589Z,22.00
2023-01-17T14:34:22.784Z,17.20
2023-01-17T14:37:42.133Z,11.88
2023-01-17T14:40:55.720Z,11.75
2023-01-17T14:44:37.458Z,10.43
2023-01-17T14:48:39.085Z,10.23
2023-01-17T14:52:40.740Z,5.80
2023-01-17T14:56:11.963Z,8.25
2023-01-17T14:59:17.436Z,11.45
2023-01-17T15:02:19.881Z,11.90
2023-01-17T15:05:25.385Z,13.13
2023-01-17T15:08:34.540Z,24.87
2023-01-17T15:11:36.915Z,18.48
2023-01-17T15:14:43.169Z,20.13
2023-01-17T15:18:19.457Z,20.35
2023-01-17T15:21:24.822Z,27.75
2023-01-17T15:24:34.390Z,33.20
2023-01-17T15:27:38.035Z,24.77
2023-01-17T15:31:10.915Z,22.30
2023-01-17T15:34:34.728Z,23.45
2023-01-17T15:37:40.044Z,20.70
2023-01-17T15:40:45.724Z,47.93
2023-01-17T15:43:48.080Z,61.47
2023-01-17T15:46:50.345Z,126.10
2023-01-17T15:49:52.523Z,126.28
2023-01-17T15:52:58.038Z,102.85
2023-01-17T15:56:00.828Z,74.47
2023-01-17T15:59:28.577Z,63.40
2023-01-17T16:02:43.365Z,53.65
2023-01-17T16:05:46.386Z,53.65
2023-01-17T16:08:54.544Z,35.03
2023-01-17T16:11:56.993Z,26.40
2023-01-17T16:15:11.825Z,17.65
2023-01-17T16:18:20.219Z,12.48
2023-01-17T16:21:25.905Z,11.77
2023-01-17T16:24:28.066Z,9.43
2023-01-17T16:27:29.994Z,9.20
2023-01-17T16:30:32.987Z,12.20
2023-01-17T16:33:35.269Z,8.07
2023-01-17T16:36:37.329Z,9.73
2023-01-17T16:39:39.804Z,12.55
2023-01-17T16:42:42.716Z,9.70
2023-01-17T16:45:50.502Z,13.77
2023-01-17T16:52:12.280Z,6.45
2023-01-17T16:55:16.052Z,9.07
2023-01-17T16:58:20.348Z,8.83
2023-01-17T17:01:22.967Z,8.80
2023-01-17T17:04:25.173Z,10.15
2023-01-17T17:07:27.190Z,9.52
2023-01-17T17:10:29.554Z,9.93
2023-01-17T17:13:35.131Z,10.13
2023-01-17T17:16:37.232Z,13.25
2023-01-17T17:19:39.737Z,15.60
2023-01-17T17:22:44.035Z,18.10
2023-01-17T17:25:45.944Z,14.25
2023-01-17T17:28:52.561Z,18.70
2023-01-17T17:31:54.901Z,17.58
2023-01-17T17:34:56.876Z,20.10
2023-01-17T17:37:58.961Z,14.75
2023-01-17T17:41:09.826Z,17.58
2023-01-17T17:44:12.449Z,16.97
2023-01-17T17:47:16.135Z,15.82
2023-01-17T17:50:18.481Z,20.02
2023-01-17T17:53:21.819Z,18.50
2023-01-17T17:56:24.116Z,23.58
2023-01-17T17:59:26.724Z,27.27
2023-01-17T18:02:28.889Z,15.15
2023-01-17T18:05:30.940Z,18.75
2023-01-17T18:08:33.991Z,21.67
2023-01-17T18:11:38.177Z,15.23
2023-01-17T18:14:40.402Z,19.27
2023-01-17T18:17:42.305Z,10.77
2023-01-17T18:20:44.632Z,6.70
2023-01-17T18:23:46.570Z,9.75
2023-01-17T18:26:51.748Z,9.30
2023-01-17T18:29:53.927Z,7.63
2023-01-17T18:32:56.137Z,9.95
2023-01-17T18:36:00.105Z,10.85
2023-01-17T18:39:13.357Z,10.15
2023-01-17T18:42:15.845Z,10.48
2023-01-17T18:45:18.343Z,20.40
2023-01-17T18:48:20.700Z,17.50
2023-01-17T18:51:23.285Z,29.65
2023-01-17T18:54:27.865Z,33.13
2023-01-17T20:45:28.857Z,10.45
2023-01-17T20:48:30.953Z,11.65
2023-01-17T20:51:38.443Z,13.63
2023-01-17T20:54:43.240Z,7.90
2023-01-17T20:57:45.097Z,16.33
2023-01-17T21:00:47.904Z,10.77
2023-01-17T21:03:51.748Z,11.93
2023-01-17T21:06:54.634Z,15.13
2023-01-17T21:09:57.505Z,21.20
2023-01-17T21:12:59.868Z,9.10
2023-01-17T21:16:02.519Z,10.93
2023-01-17T21:19:05.507Z,13.32
2023-01-17T21:22:07.373Z,11.43
2023-01-17T21:25:10.058Z,9.37
2023-01-17T21:28:12.092Z,12.20
2023-01-17T21:31:36.657Z,16.15
2023-01-17T21:34:38.509Z,10.55
2023-01-17T21:37:41.131Z,13.52
2023-01-17T21:40:44.092Z,11.03
2023-01-17T21:43:46.057Z,11.10
2023-01-17T21:46:48.669Z,16.50
2023-01-17T21:49:50.658Z,18.55
2023-01-17T21:52:53.037Z,17.80
2023-01-17T21:56:18.599Z,15.10
2023-01-17T21:59:20.454Z,11.13
2023-01-17T22:02:22.536Z,9.15
2023-01-17T22:05:24.382Z,11.30
2023-01-17T22:08:31.842Z,9.43
2023-01-17T22:11:36.696Z,8.27
2023-01-17T22:14:39.245Z,8.43
2023-01-17T22:17:42.365Z,11.70
2023-01-17T22:20:44.343Z,10.88
2023-01-17T22:23:50.287Z,8.32
2023-01-17T22:26:52.097Z,11.13
2023-01-17T22:29:54.202Z,10.63
2023-01-17T22:32:57.234Z,19.45
2023-01-17T22:35:59.584Z,6.70
2023-01-17T22:39:01.841Z,9.93
2023-01-17T22:42:03.930Z,10.57
2023-01-17T22:45:10.433Z,11.00
2023-01-17T22:48:12.302Z,10.02
2023-01-17T22:51:16.860Z,5.95
2023-01-17T22:54:19.550Z,7.15
2023-01-17T22:57:23.155Z,10.77
2023-01-17T23:00:25.136Z,7.32
2023-01-17T23:03:27.338Z,8.88
2023-01-17T23:06:34.313Z,4.25
2023-01-17T23:09:36.805Z,7.38
2023-01-17T23:12:39.102Z,10.40
2023-01-17T23:15:59.160Z,10.50
2023-01-17T23:19:19.701Z,13.32
2023-01-17T23:22:24.078Z,11.05
2023-01-17T23:25:25.933Z,12.57
2023-01-17T23:28:27.756Z,14.97
2023-01-17T23:31:29.669Z,9.75
2023-01-17T23:34:31.485Z,9.90
2023-01-17T23:37:51.693Z,11.27
2023-01-17T23:41:17.424Z,10.95
2023-01-17T23:44:19.312Z,11.67
2023-01-17T23:47:21.272Z,12.00
2023-01-17T23:50:23.244Z,10.45
2023-01-17T23:53:26.131Z,13.18
2023-01-17T23:56:28.053Z,11.27
2023-01-17T23:59:30.236Z,10.90
